createdAt,value
2023-02-01T00:00:40.525Z,8.15
2023-02-01T00:01:22.336Z,8.00
2023-02-01T00:02:04.567Z,7.70
2023-02-01T00:02:46.487Z,7.78
2023-02-01T00:03:30.684Z,7.90
2023-02-01T00:04:12.643Z,7.82
2023-02-01T00:04:54.602Z,7.78
2023-02-01T00:05:36.360Z,7.93
2023-02-01T00:06:18.113Z,8.80
2023-02-01T00:07:00.032Z,8.32
2023-02-01T00:07:41.941Z,8.07
2023-02-01T00:08:23.845Z,8.40
2023-02-01T00:09:05.689Z,9.60
2023-02-01T00:09:47.474Z,9.10
2023-02-01T00:10:31.588Z,8.30
2023-02-01T00:11:13.810Z,8.45
2023-02-01T00:11:56.063Z,9.00
2023-02-01T00:12:38.074Z,9.00
2023-02-01T00:13:19.957Z,8.77
2023-02-01T00:14:02.036Z,9.02
2023-02-01T00:14:43.902Z,8.27
2023-02-01T00:15:25.657Z,8.32
2023-02-01T00:16:10.038Z,8.20
2023-02-01T00:16:52.067Z,8.60
2023-02-01T00:17:33.897Z,8.77
2023-02-01T00:18:15.643Z,8.95
2023-02-01T00:19:03.989Z,8.25
2023-02-01T00:19:45.869Z,7.85
2023-02-01T00:20:27.615Z,8.20
2023-02-01T00:21:11.197Z,8.00
2023-02-01T00:21:53.055Z,8.80
2023-02-01T00:22:35.155Z,9.23
2023-02-01T00:23:17.011Z,8.80
2023-02-01T00:23:59.181Z,8.30
2023-02-01T00:24:41.179Z,8.63
2023-02-01T00:25:23.015Z,8.60
2023-02-01T00:26:08.231Z,8.38
2023-02-01T00:26:52.773Z,8.07
2023-02-01T00:27:34.648Z,7.60
2023-02-01T00:28:17.107Z,7.68
2023-02-01T00:28:59.031Z,8.13
2023-02-01T00:29:40.865Z,7.18
2023-02-01T00:30:22.961Z,7.40
2023-02-01T00:31:05.703Z,7.13
2023-02-01T00:31:50.381Z,7.70
2023-02-01T00:32:32.939Z,7.43
2023-02-01T00:33:14.773Z,6.90
2023-02-01T00:33:56.638Z,6.75
2023-02-01T00:34:38.629Z,7.20
2023-02-01T00:35:23.017Z,7.45
2023-02-01T00:36:07.290Z,7.25
2023-02-01T00:36:49.804Z,7.10
2023-02-01T00:37:31.611Z,7.20
2023-02-01T00:38:13.368Z,7.03
2023-02-01T00:38:55.224Z,6.85
2023-02-01T00:39:37.144Z,5.80
2023-02-01T00:40:19.615Z,6.80
2023-02-01T00:41:21.242Z,6.10
2023-02-01T00:42:03.257Z,6.40
2023-02-01T00:42:45.126Z,6.43
2023-02-01T00:43:26.937Z,6.65
2023-02-01T00:44:09.386Z,7.47
2023-02-01T00:44:51.208Z,6.28
2023-02-01T00:45:32.971Z,5.95
2023-02-01T00:46:16.992Z,6.75
2023-02-01T00:46:58.823Z,5.95
2023-02-01T00:47:40.672Z,5.50
2023-02-01T00:48:22.395Z,5.50
2023-02-01T00:49:04.887Z,5.68
2023-02-01T00:49:46.670Z,5.30
2023-02-01T00:50:28.398Z,5.63
2023-02-01T00:51:14.030Z,6.43
2023-02-01T00:51:56.134Z,6.03
2023-02-01T00:52:37.873Z,5.47
2023-02-01T00:53:19.941Z,5.40
2023-02-01T00:54:02.079Z,5.60
2023-02-01T00:54:43.914Z,5.45
2023-02-01T00:55:25.648Z,5.53
2023-02-01T00:56:08.117Z,5.68
2023-02-01T00:56:50.119Z,6.30
2023-02-01T00:57:32.357Z,5.53
2023-02-01T00:58:14.487Z,5.75
2023-02-01T00:58:56.663Z,6.18
2023-02-01T00:59:38.361Z,5.75
2023-02-01T01:00:20.497Z,4.70
2023-02-01T01:01:05.116Z,4.55
2023-02-01T01:01:46.916Z,5.00
2023-02-01T01:02:29.428Z,5.50
2023-02-01T01:03:20.001Z,5.85
2023-02-01T01:04:02.458Z,5.25
2023-02-01T01:04:46.673Z,5.43
2023-02-01T01:05:30.956Z,4.85
2023-02-01T01:06:17.887Z,5.13
2023-02-01T01:06:59.541Z,4.97
2023-02-01T01:07:42.337Z,4.80
2023-02-01T01:08:24.339Z,4.97
2023-02-01T01:09:08.411Z,5.65
2023-02-01T01:09:50.070Z,5.25
2023-02-01T01:10:32.617Z,5.00
2023-02-01T01:11:19.717Z,4.90
2023-02-01T01:12:03.647Z,5.97
2023-02-01T01:12:45.336Z,4.85
2023-02-01T01:13:26.992Z,4.50
2023-02-01T01:14:09.637Z,5.20
2023-02-01T01:14:51.391Z,5.50
2023-02-01T01:15:37.166Z,5.53
2023-02-01T01:16:20.138Z,4.00
2023-02-01T01:17:01.825Z,4.70
2023-02-01T01:17:44.116Z,4.97
2023-02-01T01:18:25.771Z,4.88
2023-02-01T01:19:07.673Z,4.80
2023-02-01T01:19:49.330Z,5.10
2023-02-01T01:20:31.021Z,5.90
2023-02-01T01:21:14.723Z,5.28
2023-02-01T01:21:56.465Z,4.93
2023-02-01T01:22:38.146Z,4.72
2023-02-01T01:23:19.938Z,4.60
2023-02-01T01:24:01.705Z,4.60
2023-02-01T01:24:43.432Z,4.60
2023-02-01T01:25:25.146Z,4.50
2023-02-01T01:26:18.688Z,5.07
2023-02-01T01:27:00.448Z,4.70
2023-02-01T01:27:42.185Z,4.32
2023-02-01T01:28:23.881Z,4.75
2023-02-01T01:29:05.759Z,4.13
2023-02-01T01:29:47.443Z,4.80
2023-02-01T01:30:29.424Z,4.63
2023-02-01T01:31:16.425Z,5.00
2023-02-01T01:31:58.152Z,4.78
2023-02-01T01:32:39.941Z,4.85
2023-02-01T01:33:21.694Z,5.60
2023-02-01T01:34:03.746Z,5.00
2023-02-01T01:34:45.505Z,4.70
2023-02-01T01:35:27.246Z,4.70
2023-02-01T01:36:12.441Z,4.60
2023-02-01T01:36:54.133Z,4.85
2023-02-01T01:37:36.399Z,4.90
2023-02-01T01:38:18.068Z,4.57
2023-02-01T01:38:59.794Z,4.45
2023-02-01T01:39:41.456Z,4.70
2023-02-01T01:40:23.483Z,4.20
2023-02-01T01:41:05.762Z,4.47
2023-02-01T01:41:47.490Z,3.95
2023-02-01T01:42:29.183Z,4.18
2023-02-01T01:43:23.412Z,4.88
2023-02-01T01:44:07.582Z,4.97
2023-02-01T01:45:05.720Z,4.30
2023-02-01T01:45:47.466Z,5.00
2023-02-01T01:46:32.214Z,4.22
2023-02-01T01:47:16.048Z,4.35
2023-02-01T01:48:00.461Z,5.28
2023-02-01T01:48:42.229Z,5.50
2023-02-01T01:49:26.570Z,4.20
2023-02-01T01:50:11.301Z,3.95
2023-02-01T01:50:58.577Z,4.70
2023-02-01T01:51:50.001Z,4.10
2023-02-01T01:52:31.700Z,5.10
2023-02-01T01:53:17.931Z,4.50
2023-02-01T01:54:26.192Z,4.40
2023-02-01T01:55:08.891Z,4.18
2023-02-01T01:55:51.326Z,4.50
2023-02-01T01:56:35.466Z,4.80
2023-02-01T01:57:33.007Z,4.93
2023-02-01T01:58:20.335Z,5.10
2023-02-01T01:59:03.275Z,4.25
2023-02-01T01:59:50.999Z,4.95
2023-02-01T02:00:34.001Z,4.95
2023-02-01T02:01:16.275Z,4.60
2023-02-01T02:01:58.082Z,4.38
2023-02-01T02:02:42.515Z,4.47
2023-02-01T02:03:34.966Z,5.35
2023-02-01T02:04:17.264Z,4.90
2023-02-01T02:04:58.978Z,4.80
2023-02-01T02:05:40.962Z,4.45
2023-02-01T02:06:29.214Z,4.60
2023-02-01T02:07:20.308Z,5.10
2023-02-01T02:08:02.128Z,4.95
2023-02-01T02:08:43.938Z,4.82
2023-02-01T02:09:25.651Z,4.20
2023-02-01T02:10:11.600Z,5.10
2023-02-01T02:11:03.258Z,4.38
2023-02-01T02:11:45.029Z,5.10
2023-02-01T02:12:27.015Z,4.80
2023-02-01T02:13:08.935Z,5.82
2023-02-01T02:13:53.987Z,5.50
2023-02-01T02:14:37.087Z,5.20
2023-02-01T02:15:18.965Z,5.18
2023-02-01T02:16:18.874Z,5.47
2023-02-01T02:17:37.141Z,5.70
2023-02-01T02:18:32.049Z,5.22
2023-02-01T02:19:38.384Z,5.95
2023-02-01T02:20:32.523Z,6.10
2023-02-01T02:21:23.049Z,6.78
2023-02-01T02:22:29.774Z,5.93
2023-02-01T02:23:11.406Z,4.70
2023-02-01T02:23:53.036Z,5.80
2023-02-01T02:25:32.145Z,5.93
2023-02-01T02:26:47.242Z,5.70
2023-02-01T02:27:37.960Z,5.38
2023-02-01T02:28:37.571Z,5.47
2023-02-01T02:30:02.310Z,5.70
2023-02-01T02:31:01.227Z,6.38
2023-02-01T02:32:16.150Z,6.20
2023-02-01T02:33:27.324Z,6.10
2023-02-01T02:34:46.183Z,6.03
2023-02-01T02:35:31.472Z,6.00
2023-02-01T02:36:13.157Z,6.32
2023-02-01T02:37:06.313Z,6.57
2023-02-01T02:38:06.490Z,5.95
2023-02-01T02:38:53.822Z,6.72
2023-02-01T02:39:58.956Z,6.93
2023-02-01T02:41:09.775Z,5.93
2023-02-01T02:42:22.290Z,5.50
2023-02-01T02:43:31.293Z,6.10
2023-02-01T02:44:53.607Z,5.88
2023-02-01T02:46:06.654Z,6.20
2023-02-01T02:47:11.858Z,6.10
2023-02-01T02:48:04.242Z,5.35
2023-02-01T02:48:53.105Z,5.85
2023-02-01T02:49:40.743Z,6.38
2023-02-01T02:50:56.555Z,6.03
2023-02-01T02:52:10.882Z,6.60
2023-02-01T02:53:25.560Z,6.07
2023-02-01T02:54:55.477Z,5.97
2023-02-01T02:55:39.435Z,6.82
2023-02-01T02:56:42.842Z,6.93
2023-02-01T02:57:58.454Z,6.60
2023-02-01T02:58:58.739Z,6.25
2023-02-01T03:00:01.081Z,6.15
2023-02-01T03:01:02.659Z,7.05
2023-02-01T03:02:03.862Z,5.90
2023-02-01T03:03:05.983Z,6.82
2023-02-01T03:04:07.631Z,7.07
2023-02-01T03:04:57.093Z,6.90
2023-02-01T03:05:45.717Z,6.75
2023-02-01T03:06:28.594Z,6.10
2023-02-01T03:07:53.006Z,6.53
2023-02-01T03:08:35.027Z,6.55
2023-02-01T03:09:31.528Z,6.53
2023-02-01T03:10:36.242Z,6.63
2023-02-01T03:11:18.114Z,6.70
2023-02-01T03:12:26.877Z,6.80
2023-02-01T03:13:34.534Z,6.60
2023-02-01T03:14:17.992Z,6.70
2023-02-01T03:15:09.076Z,6.40
2023-02-01T03:15:57.077Z,6.05
2023-02-01T03:16:45.586Z,6.60
2023-02-01T03:17:37.791Z,6.00
2023-02-01T03:18:29.462Z,6.53
2023-02-01T03:19:26.153Z,7.10
2023-02-01T03:20:12.619Z,6.30
2023-02-01T03:20:56.332Z,6.57
2023-02-01T03:22:12.706Z,7.20
2023-02-01T03:22:56.100Z,6.57
2023-02-01T03:23:39.707Z,6.38
2023-02-01T03:24:34.087Z,6.50
2023-02-01T03:25:23.872Z,7.00
2023-02-01T03:26:12.483Z,7.05
2023-02-01T03:27:02.498Z,7.35
2023-02-01T03:28:01.428Z,6.35
2023-02-01T03:28:49.617Z,6.70
2023-02-01T03:29:41.354Z,7.68
2023-02-01T03:30:43.093Z,7.00
2023-02-01T03:31:25.569Z,6.70
2023-02-01T03:32:07.513Z,6.70
2023-02-01T03:33:00.556Z,6.07
2023-02-01T03:33:43.097Z,6.57
2023-02-01T03:34:25.210Z,6.80
2023-02-01T03:35:07.451Z,6.18
2023-02-01T03:36:50.568Z,6.07
2023-02-01T03:37:32.469Z,6.22
2023-02-01T03:38:25.495Z,6.30
2023-02-01T03:39:33.915Z,6.70
2023-02-01T03:40:17.477Z,6.80
2023-02-01T03:41:10.005Z,7.22
2023-02-01T03:41:56.452Z,6.72
2023-02-01T03:42:39.909Z,6.30
2023-02-01T03:43:24.690Z,5.90
2023-02-01T03:44:26.478Z,7.68
2023-02-01T03:45:12.541Z,5.40
2023-02-01T03:46:01.231Z,6.00
2023-02-01T03:46:55.170Z,5.72
2023-02-01T03:47:41.145Z,6.40
2023-02-01T03:48:24.830Z,6.35
2023-02-01T03:49:09.653Z,6.30
2023-02-01T03:49:56.525Z,6.30
2023-02-01T03:50:44.222Z,6.45
2023-02-01T03:51:26.757Z,6.18
2023-02-01T03:52:37.673Z,5.95
2023-02-01T03:53:23.283Z,6.30
2023-02-01T03:54:09.696Z,6.55
2023-02-01T03:54:52.730Z,6.05
2023-02-01T03:55:37.215Z,6.05
2023-02-01T03:56:22.323Z,6.43
2023-02-01T03:57:08.884Z,6.80
2023-02-01T03:58:01.983Z,5.30
2023-02-01T03:59:01.340Z,6.10
2023-02-01T03:59:45.891Z,5.30
2023-02-01T04:00:28.271Z,6.30
2023-02-01T04:01:10.490Z,5.90
2023-02-01T04:01:52.419Z,5.57
2023-02-01T04:02:34.355Z,5.60
2023-02-01T04:03:16.119Z,5.70
2023-02-01T04:04:01.443Z,5.97
2023-02-01T04:04:43.182Z,6.50
2023-02-01T04:05:25.130Z,5.78
2023-02-01T04:06:07.083Z,6.15
2023-02-01T04:06:50.795Z,5.72
2023-02-01T04:07:33.073Z,6.25
2023-02-01T04:08:15.032Z,5.97
2023-02-01T04:08:56.773Z,5.50
2023-02-01T04:09:40.794Z,5.50
2023-02-01T04:10:22.858Z,5.85
2023-02-01T04:11:05.046Z,5.80
2023-02-01T04:11:46.843Z,6.18
2023-02-01T04:12:30.613Z,6.20
2023-02-01T04:13:12.640Z,6.20
2023-02-01T04:13:54.626Z,5.60
2023-02-01T04:14:36.370Z,5.70
2023-02-01T04:15:18.353Z,5.95
2023-02-01T04:16:00.376Z,5.60
2023-02-01T04:16:42.138Z,5.68
2023-02-01T04:17:23.951Z,6.50
2023-02-01T04:18:06.217Z,5.85
2023-02-01T04:18:48.000Z,6.53
2023-02-01T04:19:30.123Z,6.75
2023-02-01T04:20:12.376Z,6.32
2023-02-01T04:20:54.138Z,5.93
2023-02-01T04:21:36.065Z,5.93
2023-02-01T04:22:17.810Z,6.28
2023-02-01T04:23:01.718Z,6.68
2023-02-01T04:23:45.892Z,4.70
2023-02-01T04:24:27.719Z,5.80
2023-02-01T04:25:10.138Z,6.45
2023-02-01T04:25:51.920Z,5.90
2023-02-01T04:26:33.703Z,5.47
2023-02-01T04:27:15.610Z,6.28
2023-02-01T04:27:57.341Z,6.60
2023-02-01T04:28:39.065Z,6.00
2023-02-01T04:29:20.860Z,5.65
2023-02-01T04:30:06.158Z,5.78
2023-02-01T04:30:48.043Z,5.88
2023-02-01T04:31:30.168Z,5.60
2023-02-01T04:32:12.331Z,5.30
2023-02-01T04:32:54.119Z,6.10
2023-02-01T04:33:35.929Z,6.47
2023-02-01T04:34:17.736Z,6.63
2023-02-01T04:34:59.440Z,6.50
2023-02-01T04:35:41.704Z,5.78
2023-02-01T04:36:23.449Z,5.75
2023-02-01T04:37:05.467Z,5.82
2023-02-01T04:37:47.204Z,6.63
2023-02-01T04:38:30.380Z,5.57
2023-02-01T04:39:12.371Z,5.90
2023-02-01T04:39:54.102Z,6.50
2023-02-01T04:40:35.895Z,6.28
2023-02-01T04:41:19.736Z,5.35
2023-02-01T04:42:01.529Z,5.15
2023-02-01T04:42:43.417Z,5.20
2023-02-01T04:43:26.062Z,5.78
2023-02-01T04:44:10.693Z,5.90
2023-02-01T04:44:52.470Z,5.40
2023-02-01T04:45:34.266Z,4.88
2023-02-01T04:46:16.287Z,5.03
2023-02-01T04:46:58.354Z,5.15
2023-02-01T04:47:40.629Z,5.90
2023-02-01T04:48:24.912Z,5.60
2023-02-01T04:49:06.913Z,4.80
2023-02-01T04:49:50.873Z,5.00
2023-02-01T04:50:32.734Z,5.50
2023-02-01T04:51:16.076Z,5.40
2023-02-01T04:51:57.926Z,5.22
2023-02-01T04:52:40.296Z,5.40
2023-02-01T04:53:22.131Z,5.50
2023-02-01T04:54:05.095Z,5.68
2023-02-01T04:54:46.858Z,5.40
2023-02-01T04:55:28.591Z,5.80
2023-02-01T04:56:10.948Z,6.20
2023-02-01T04:56:52.733Z,6.32
2023-02-01T04:57:34.565Z,6.88
2023-02-01T04:58:16.440Z,6.10
2023-02-01T04:58:58.427Z,5.50
2023-02-01T04:59:40.920Z,6.90
2023-02-01T05:00:22.995Z,6.20
2023-02-01T05:01:06.543Z,5.60
2023-02-01T05:01:49.052Z,5.95
2023-02-01T05:02:33.205Z,6.75
2023-02-01T05:03:17.704Z,5.80
2023-02-01T05:03:59.524Z,5.10
2023-02-01T05:04:41.500Z,5.15
2023-02-01T05:05:23.322Z,5.38
2023-02-01T05:06:05.858Z,5.60
2023-02-01T05:06:47.640Z,5.97
2023-02-01T05:07:29.384Z,5.65
2023-02-01T05:08:11.303Z,5.63
2023-02-01T05:08:53.113Z,5.10
2023-02-01T05:09:35.234Z,5.70
2023-02-01T05:10:17.384Z,5.70
2023-02-01T05:11:00.128Z,6.00
2023-02-01T05:12:00.533Z,5.32
2023-02-01T05:13:05.782Z,5.63
2023-02-01T05:13:50.257Z,5.50
2023-02-01T05:14:32.058Z,5.80
2023-02-01T05:15:16.156Z,5.50
2023-02-01T05:15:57.990Z,5.32
2023-02-01T05:16:39.896Z,5.30
2023-02-01T05:17:21.654Z,5.15
2023-02-01T05:18:06.260Z,5.50
2023-02-01T05:18:48.097Z,5.60
2023-02-01T05:19:31.978Z,5.25
2023-02-01T05:20:16.131Z,4.97
2023-02-01T05:20:57.882Z,4.43
2023-02-01T05:21:40.307Z,4.65
2023-02-01T05:22:22.067Z,4.60
2023-02-01T05:23:05.904Z,4.90
2023-02-01T05:24:05.974Z,4.90
2023-02-01T05:24:47.738Z,4.30
2023-02-01T05:25:29.629Z,4.60
2023-02-01T05:26:11.494Z,4.90
2023-02-01T05:26:53.574Z,4.78
2023-02-01T05:27:35.817Z,5.35
2023-02-01T05:28:17.596Z,5.07
2023-02-01T05:28:59.369Z,4.95
2023-02-01T05:29:41.209Z,4.50
2023-02-01T05:30:23.206Z,4.05
2023-02-01T05:31:11.649Z,5.00
2023-02-01T05:31:53.761Z,4.70
2023-02-01T05:32:36.004Z,5.05
2023-02-01T05:33:17.866Z,5.15
2023-02-01T05:33:59.700Z,5.00
2023-02-01T05:34:41.554Z,4.55
2023-02-01T05:35:23.417Z,5.00
2023-02-01T05:36:07.018Z,5.10
2023-02-01T05:36:51.230Z,5.40
2023-02-01T05:37:33.018Z,5.82
2023-02-01T05:38:16.883Z,4.95
2023-02-01T05:39:01.076Z,4.90
2023-02-01T05:39:42.889Z,5.60
2023-02-01T05:40:25.149Z,5.53
2023-02-01T05:41:07.479Z,5.03
2023-02-01T05:41:49.264Z,5.30
2023-02-01T05:42:31.051Z,5.40
2023-02-01T05:43:12.785Z,4.28
2023-02-01T05:43:55.248Z,5.10
2023-02-01T05:44:37.056Z,4.82
2023-02-01T05:45:21.111Z,5.35
2023-02-01T05:46:03.079Z,5.30
2023-02-01T05:46:45.395Z,4.50
2023-02-01T05:47:27.339Z,5.43
2023-02-01T05:48:11.711Z,4.97
2023-02-01T05:48:53.463Z,4.82
2023-02-01T05:49:35.316Z,5.70
2023-02-01T05:50:17.893Z,5.00
2023-02-01T05:51:00.118Z,5.05
2023-02-01T05:51:41.968Z,4.50
2023-02-01T05:52:26.190Z,4.75
2023-02-01T05:53:07.977Z,4.80
2023-02-01T05:53:49.773Z,4.60
2023-02-01T05:54:31.663Z,4.70
2023-02-01T05:55:13.454Z,4.60
2023-02-01T05:55:55.408Z,4.50
2023-02-01T05:56:37.204Z,4.25
2023-02-01T05:57:21.354Z,4.78
2023-02-01T05:58:03.437Z,4.93
2023-02-01T05:58:45.405Z,4.85
2023-02-01T05:59:27.200Z,5.10
2023-02-01T06:00:09.786Z,5.38
2023-02-01T06:00:51.768Z,4.90
2023-02-01T06:01:33.562Z,4.65
2023-02-01T06:02:17.087Z,4.70
2023-02-01T06:02:59.087Z,4.43
2023-02-01T06:03:41.104Z,4.60
2023-02-01T06:04:22.868Z,4.15
2023-02-01T06:05:07.294Z,3.72
2023-02-01T06:05:49.311Z,4.40
2023-02-01T06:06:31.126Z,4.75
2023-02-01T06:07:12.984Z,4.40
2023-02-01T06:07:54.937Z,4.57
2023-02-01T06:08:36.716Z,4.15
2023-02-01T06:09:18.666Z,4.50
2023-02-01T06:10:00.762Z,4.32
2023-02-01T06:10:42.618Z,5.30
2023-02-01T06:11:32.517Z,4.68
2023-02-01T06:12:15.331Z,4.75
2023-02-01T06:12:57.111Z,4.00
2023-02-01T06:13:39.660Z,4.60
2023-02-01T06:14:21.696Z,3.70
2023-02-01T06:15:03.676Z,4.13
2023-02-01T06:15:47.992Z,4.53
2023-02-01T06:16:29.916Z,4.13
2023-02-01T06:17:11.713Z,4.20
2023-02-01T06:17:53.526Z,4.30
2023-02-01T06:18:36.388Z,4.45
2023-02-01T06:19:18.178Z,4.35
2023-02-01T06:20:02.258Z,4.40
2023-02-01T06:20:44.542Z,4.15
2023-02-01T06:21:26.432Z,4.60
2023-02-01T06:22:08.136Z,4.50
2023-02-01T06:22:50.510Z,4.03
2023-02-01T06:23:32.345Z,4.50
2023-02-01T06:24:14.524Z,5.03
2023-02-01T06:24:56.357Z,3.92
2023-02-01T06:25:38.722Z,3.63
2023-02-01T06:26:21.335Z,3.80
2023-02-01T06:27:03.113Z,3.90
2023-02-01T06:27:48.571Z,4.10
2023-02-01T06:28:31.730Z,5.25
2023-02-01T06:29:16.388Z,5.10
2023-02-01T06:29:58.213Z,5.05
2023-02-01T06:30:42.047Z,4.72
2023-02-01T06:31:24.521Z,4.38
2023-02-01T06:32:06.590Z,4.60
2023-02-01T06:32:54.600Z,5.28
2023-02-01T06:33:37.150Z,4.20
2023-02-01T06:34:22.126Z,4.07
2023-02-01T06:35:06.884Z,4.80
2023-02-01T06:35:48.687Z,5.03
2023-02-01T06:36:30.908Z,4.40
2023-02-01T06:37:13.751Z,4.50
2023-02-01T06:37:55.917Z,5.22
2023-02-01T06:38:37.771Z,5.60
2023-02-01T06:39:19.629Z,4.43
2023-02-01T06:40:01.378Z,4.75
2023-02-01T06:40:43.265Z,5.90
2023-02-01T06:41:27.168Z,4.75
2023-02-01T06:42:10.563Z,4.10
2023-02-01T06:42:52.341Z,4.75
2023-02-01T06:43:36.437Z,4.63
2023-02-01T06:44:18.252Z,5.28
2023-02-01T06:45:00.397Z,5.32
2023-02-01T06:45:42.787Z,5.85
2023-02-01T06:46:24.610Z,6.10
2023-02-01T06:47:09.087Z,4.95
2023-02-01T06:47:51.174Z,5.45
2023-02-01T06:48:33.548Z,5.03
2023-02-01T06:49:15.509Z,5.10
2023-02-01T06:49:57.210Z,5.00
2023-02-01T06:50:38.988Z,4.68
2023-02-01T06:51:26.623Z,4.82
2023-02-01T06:52:08.368Z,4.70
2023-02-01T06:52:52.431Z,4.47
2023-02-01T06:53:36.473Z,4.30
2023-02-01T06:54:18.341Z,4.32
2023-02-01T06:55:00.427Z,4.72
2023-02-01T06:55:42.138Z,4.70
2023-02-01T06:56:26.670Z,4.60
2023-02-01T06:57:08.463Z,5.60
2023-02-01T06:57:54.698Z,5.15
2023-02-01T06:58:37.133Z,4.60
2023-02-01T06:59:18.882Z,5.30
2023-02-01T07:00:00.756Z,4.72
2023-02-01T07:00:42.502Z,4.75
2023-02-01T07:01:26.742Z,4.75
2023-02-01T07:02:12.443Z,5.28
2023-02-01T07:02:56.551Z,5.10
2023-02-01T07:03:38.928Z,5.43
2023-02-01T07:04:21.252Z,4.80
2023-02-01T07:05:02.991Z,4.65
2023-02-01T07:05:44.697Z,5.15
2023-02-01T07:06:26.737Z,4.78
2023-02-01T07:07:08.955Z,5.20
2023-02-01T07:07:51.349Z,5.50
2023-02-01T07:08:35.016Z,5.25
2023-02-01T07:09:17.078Z,4.40
2023-02-01T07:09:58.817Z,5.40
2023-02-01T07:10:40.644Z,4.63
2023-02-01T07:11:23.597Z,5.20
2023-02-01T07:12:05.738Z,5.13
2023-02-01T07:12:47.502Z,4.30
2023-02-01T07:13:31.296Z,4.68
2023-02-01T07:14:13.169Z,4.78
2023-02-01T07:14:54.935Z,4.32
2023-02-01T07:15:36.799Z,5.25
2023-02-01T07:16:20.692Z,5.20
2023-02-01T07:17:02.743Z,4.65
2023-02-01T07:17:45.697Z,4.53
2023-02-01T07:18:29.726Z,4.90
2023-02-01T07:19:11.491Z,5.45
2023-02-01T07:19:53.358Z,4.60
2023-02-01T07:20:35.548Z,5.00
2023-02-01T07:21:17.372Z,4.68
2023-02-01T07:22:01.761Z,5.60
2023-02-01T07:22:43.650Z,5.10
2023-02-01T07:23:26.615Z,4.80
2023-02-01T07:24:08.399Z,5.00
2023-02-01T07:24:50.131Z,5.50
2023-02-01T07:25:31.882Z,5.10
2023-02-01T07:26:15.697Z,5.30
2023-02-01T07:26:57.450Z,5.25
2023-02-01T07:27:39.411Z,4.95
2023-02-01T07:28:21.549Z,4.50
2023-02-01T07:29:03.300Z,4.50
2023-02-01T07:29:45.038Z,4.78
2023-02-01T07:30:27.118Z,5.30
2023-02-01T07:31:19.163Z,4.75
2023-02-01T07:32:02.470Z,4.97
2023-02-01T07:32:46.380Z,4.75
2023-02-01T07:33:28.973Z,5.35
2023-02-01T07:34:11.003Z,5.25
2023-02-01T07:34:52.691Z,5.10
2023-02-01T07:35:34.489Z,5.25
2023-02-01T07:36:17.635Z,4.15
2023-02-01T07:37:01.988Z,5.00
2023-02-01T07:37:43.852Z,5.53
2023-02-01T07:38:26.014Z,4.85
2023-02-01T07:39:07.849Z,5.15
2023-02-01T07:39:49.587Z,4.93
2023-02-01T07:40:31.412Z,5.00
2023-02-01T07:41:13.198Z,4.70
2023-02-01T07:41:55.912Z,4.72
2023-02-01T07:42:37.804Z,5.57
2023-02-01T07:43:19.589Z,4.70
2023-02-01T07:44:01.539Z,4.50
2023-02-01T07:44:43.297Z,3.75
2023-02-01T07:45:25.084Z,4.53
2023-02-01T07:46:07.572Z,5.30
2023-02-01T07:46:52.361Z,5.72
2023-02-01T07:47:34.075Z,5.28
2023-02-01T07:48:16.079Z,4.53
2023-02-01T07:48:58.235Z,4.53
2023-02-01T07:49:40.049Z,5.13
2023-02-01T07:50:22.066Z,4.88
2023-02-01T07:51:15.631Z,5.30
2023-02-01T07:51:57.470Z,4.45
2023-02-01T07:52:39.205Z,4.93
2023-02-01T07:53:21.241Z,5.45
2023-02-01T07:54:02.998Z,4.97
2023-02-01T07:54:44.836Z,4.20
2023-02-01T07:55:27.150Z,4.32
2023-02-01T07:56:19.984Z,4.97
2023-02-01T07:57:01.746Z,4.70
2023-02-01T07:57:43.482Z,5.43
2023-02-01T07:58:28.370Z,5.13
2023-02-01T07:59:10.176Z,5.70
2023-02-01T08:00:12.459Z,5.50
2023-02-01T08:01:13.533Z,5.68
2023-02-01T08:01:55.298Z,6.28
2023-02-01T08:02:37.089Z,5.35
2023-02-01T08:03:18.850Z,5.25
2023-02-01T08:04:03.196Z,5.45
2023-02-01T08:04:45.079Z,5.00
2023-02-01T08:05:27.047Z,4.95
2023-02-01T08:06:08.880Z,4.90
2023-02-01T08:06:50.820Z,4.70
2023-02-01T08:07:32.615Z,4.70
2023-02-01T08:08:16.822Z,4.80
2023-02-01T08:08:59.240Z,4.82
2023-02-01T08:09:41.314Z,5.30
2023-02-01T08:10:23.732Z,4.63
2023-02-01T08:11:07.329Z,4.80
2023-02-01T08:11:49.130Z,5.00
2023-02-01T08:12:30.926Z,4.93
2023-02-01T08:13:12.611Z,4.97
2023-02-01T08:13:55.430Z,4.50
2023-02-01T08:14:37.197Z,4.68
2023-02-01T08:15:19.196Z,4.47
2023-02-01T08:16:02.784Z,4.28
2023-02-01T08:16:44.899Z,4.30
2023-02-01T08:17:27.249Z,5.18
2023-02-01T08:18:10.932Z,5.70
2023-02-01T08:18:56.122Z,4.57
2023-02-01T08:19:38.030Z,4.80
2023-02-01T08:20:20.397Z,5.00
2023-02-01T08:21:06.142Z,5.10
2023-02-01T08:21:49.738Z,4.68
2023-02-01T08:22:34.439Z,4.10
2023-02-01T08:23:18.745Z,4.03
2023-02-01T08:24:00.514Z,5.03
2023-02-01T08:24:42.729Z,5.70
2023-02-01T08:25:25.226Z,4.22
2023-02-01T08:26:12.781Z,4.60
2023-02-01T08:26:54.750Z,5.10
2023-02-01T08:27:37.323Z,4.28
2023-02-01T08:28:19.161Z,4.90
2023-02-01T08:29:04.025Z,4.60
2023-02-01T08:29:45.790Z,4.35
2023-02-01T08:30:30.871Z,4.60
2023-02-01T08:31:17.838Z,5.07
2023-02-01T08:31:59.739Z,5.00
2023-02-01T08:32:41.651Z,4.88
2023-02-01T08:33:25.740Z,5.15
2023-02-01T08:34:09.358Z,4.82
2023-02-01T08:34:51.087Z,5.10
2023-02-01T08:35:42.802Z,4.75
2023-02-01T08:36:26.612Z,5.30
2023-02-01T08:37:11.090Z,4.63
2023-02-01T08:37:52.838Z,4.85
2023-02-01T08:38:37.532Z,5.93
2023-02-01T08:39:19.299Z,5.00
2023-02-01T08:40:01.176Z,5.10
2023-02-01T08:40:43.062Z,4.22
2023-02-01T08:41:27.199Z,4.90
2023-02-01T08:42:27.492Z,4.40
2023-02-01T08:43:09.295Z,4.95
2023-02-01T08:43:51.438Z,5.47
2023-02-01T08:44:33.299Z,5.37
2023-02-01T08:45:15.351Z,4.93
2023-02-01T08:45:57.331Z,4.07
2023-02-01T08:46:39.168Z,5.10
2023-02-01T08:47:20.937Z,4.80
2023-02-01T08:48:02.726Z,4.57
2023-02-01T08:48:46.170Z,5.10
2023-02-01T08:49:27.938Z,5.05
2023-02-01T08:50:11.075Z,4.65
2023-02-01T08:50:52.816Z,4.47
2023-02-01T08:51:34.948Z,5.10
2023-02-01T08:52:16.712Z,5.22
2023-02-01T08:52:58.456Z,4.07
2023-02-01T08:53:42.359Z,4.15
2023-02-01T08:54:24.105Z,4.40
2023-02-01T08:55:07.445Z,4.63
2023-02-01T08:55:49.813Z,4.75
2023-02-01T08:56:34.408Z,4.60
2023-02-01T08:57:16.445Z,4.72
2023-02-01T08:57:58.390Z,4.47
2023-02-01T08:58:40.932Z,5.07
2023-02-01T08:59:22.876Z,5.10
2023-02-01T09:00:08.212Z,4.05
2023-02-01T09:00:50.759Z,5.65
2023-02-01T09:01:32.544Z,4.50
2023-02-01T09:02:15.965Z,5.60
2023-02-01T09:02:57.882Z,4.53
2023-02-01T09:03:40.114Z,5.15
2023-02-01T09:04:22.084Z,4.85
2023-02-01T09:05:05.000Z,4.60
2023-02-01T09:05:49.783Z,4.10
2023-02-01T09:06:31.977Z,4.40
2023-02-01T09:07:14.571Z,4.60
2023-02-01T09:07:56.465Z,4.70
2023-02-01T09:08:39.545Z,5.82
2023-02-01T09:09:21.419Z,5.03
2023-02-01T09:10:04.385Z,5.18
2023-02-01T09:10:46.243Z,4.55
2023-02-01T09:11:28.048Z,4.57
2023-02-01T09:12:10.126Z,4.60
2023-02-01T09:12:52.975Z,4.13
2023-02-01T09:13:35.098Z,4.68
2023-02-01T09:14:17.569Z,4.90
2023-02-01T09:15:00.605Z,4.90
2023-02-01T09:15:42.504Z,4.22
2023-02-01T09:16:24.322Z,5.10
2023-02-01T09:17:09.016Z,5.35
2023-02-01T09:17:50.890Z,4.55
2023-02-01T09:18:32.778Z,4.57
2023-02-01T09:19:25.781Z,4.97
2023-02-01T09:20:11.520Z,4.33
2023-02-01T09:20:53.421Z,4.68
2023-02-01T09:21:35.762Z,4.80
2023-02-01T09:22:17.836Z,5.03
2023-02-01T09:23:01.011Z,5.20
2023-02-01T09:23:43.031Z,4.40
2023-02-01T09:24:25.128Z,4.40
2023-02-01T09:25:07.612Z,5.30
2023-02-01T09:25:53.140Z,5.28
2023-02-01T09:26:35.150Z,5.50
2023-02-01T09:27:16.996Z,5.00
2023-02-01T09:28:01.334Z,5.00
2023-02-01T09:28:43.112Z,4.68
2023-02-01T09:29:25.126Z,4.50
2023-02-01T09:30:07.469Z,4.13
2023-02-01T09:30:49.352Z,5.50
2023-02-01T09:31:34.197Z,5.03
2023-02-01T09:32:16.208Z,4.40
2023-02-01T09:32:58.098Z,4.20
2023-02-01T09:33:41.120Z,3.95
2023-02-01T09:34:23.012Z,4.35
2023-02-01T09:35:05.182Z,4.70
2023-02-01T09:35:46.952Z,5.05
2023-02-01T09:36:30.889Z,4.30
2023-02-01T09:37:13.014Z,4.32
2023-02-01T09:37:55.171Z,4.60
2023-02-01T09:38:41.649Z,4.60
2023-02-01T09:39:26.336Z,5.38
2023-02-01T09:40:12.183Z,5.20
2023-02-01T09:40:55.409Z,4.63
2023-02-01T09:41:56.763Z,4.20
2023-02-01T09:42:57.268Z,4.32
2023-02-01T09:43:50.698Z,4.10
2023-02-01T09:44:53.575Z,4.20
2023-02-01T09:45:53.800Z,4.90
2023-02-01T09:46:36.227Z,5.03
2023-02-01T09:47:21.293Z,5.07
2023-02-01T09:48:15.624Z,5.50
2023-02-01T09:49:01.821Z,5.25
2023-02-01T09:50:06.317Z,5.22
2023-02-01T09:50:56.405Z,5.10
2023-02-01T09:51:42.153Z,5.10
2023-02-01T09:52:39.285Z,5.07
2023-02-01T09:53:45.352Z,3.95
2023-02-01T09:54:31.033Z,4.68
2023-02-01T09:55:38.592Z,5.40
2023-02-01T09:56:26.435Z,4.30
2023-02-01T09:57:15.765Z,4.90
2023-02-01T09:58:02.337Z,4.78
2023-02-01T09:58:53.085Z,4.43
2023-02-01T09:59:42.009Z,4.90
2023-02-01T10:00:30.911Z,4.60
2023-02-01T10:01:24.485Z,7.03
2023-02-01T10:02:14.292Z,9.05